sensor_id;sensor_type;location;lat;lon;timestamp;noise_LAeq;noise_LA_min;noise_LA_max;noise_LA01;noise_LA95
77135;Laerm;48586;50.122;18.972;2023-08-24T00:00:43;51.98;48.36;55.09;;
77135;Laerm;48586;50.122;18.972;2023-08-24T00:03:49;51.90;48.49;54.85;;
77135;Laerm;48586;50.122;18.972;2023-08-24T00:06:55;52.26;48.41;56.65;;
77135;Laerm;48586;50.122;18.972;2023-08-24T00:10:08;52.18;48.62;54.91;;
77135;Laerm;48586;50.122;18.972;2023-08-24T00:13:18;52.01;48.29;55.36;;
77135;Laerm;48586;50.122;18.972;2023-08-24T00:16:23;51.91;48.32;55.11;;
77135;Laerm;48586;50.122;18.972;2023-08-24T00:19:29;52.23;48.50;56.40;;
77135;Laerm;48586;50.122;18.972;2023-08-24T00:22:38;51.83;48.28;55.22;;
77135;Laerm;48586;50.122;18.972;2023-08-24T00:25:48;52.32;48.29;55.26;;
77135;Laerm;48586;50.122;18.972;2023-08-24T00:28:56;51.95;48.35;55.62;;
77135;Laerm;48586;50.122;18.972;2023-08-24T00:32:03;52.15;48.23;55.06;;
77135;Laerm;48586;50.122;18.972;2023-08-24T00:35:11;52.52;48.44;57.53;;
77135;Laerm;48586;50.122;18.972;2023-08-24T00:38:20;52.05;48.31;55.16;;
77135;Laerm;48586;50.122;18.972;2023-08-24T00:41:25;52.08;48.41;55.43;;
77135;Laerm;48586;50.122;18.972;2023-08-24T00:44:34;52.80;48.35;56.11;;
77135;Laerm;48586;50.122;18.972;2023-08-24T00:47:43;52.50;48.71;55.20;;
77135;Laerm;48586;50.122;18.972;2023-08-24T00:50:49;52.41;48.61;55.51;;
77135;Laerm;48586;50.122;18.972;2023-08-24T00:53:57;52.52;48.65;55.55;;
77135;Laerm;48586;50.122;18.972;2023-08-24T00:57:03;52.55;48.74;55.45;;
77135;Laerm;48586;50.122;18.972;2023-08-24T01:00:12;53.08;48.89;61.12;;
77135;Laerm;48586;50.122;18.972;2023-08-24T01:03:22;52.45;48.33;55.04;;
77135;Laerm;48586;50.122;18.972;2023-08-24T01:06:28;52.90;48.94;56.66;;
77135;Laerm;48586;50.122;18.972;2023-08-24T01:09:37;52.22;48.53;55.27;;
77135;Laerm;48586;50.122;18.972;2023-08-24T01:13:00;52.61;48.64;57.65;;
77135;Laerm;48586;50.122;18.972;2023-08-24T01:16:19;52.25;48.61;57.76;;
77135;Laerm;48586;50.122;18.972;2023-08-24T01:19:41;52.36;48.42;55.36;;
77135;Laerm;48586;50.122;18.972;2023-08-24T01:23:03;52.58;48.60;55.73;;
77135;Laerm;48586;50.122;18.972;2023-08-24T01:26:18;52.46;48.56;55.55;;
77135;Laerm;48586;50.122;18.972;2023-08-24T01:29:26;52.57;48.42;55.62;;
77135;Laerm;48586;50.122;18.972;2023-08-24T01:32:35;52.61;48.67;56.03;;
77135;Laerm;48586;50.122;18.972;2023-08-24T01:35:43;52.55;48.65;55.55;;
77135;Laerm;48586;50.122;18.972;2023-08-24T01:39:02;52.59;48.62;55.72;;
77135;Laerm;48586;50.122;18.972;2023-08-24T01:42:22;52.54;48.61;55.80;;
77135;Laerm;48586;50.122;18.972;2023-08-24T01:45:33;52.61;48.55;55.63;;
77135;Laerm;48586;50.122;18.972;2023-08-24T01:48:43;52.68;48.83;55.63;;
77135;Laerm;48586;50.122;18.972;2023-08-24T01:51:52;52.93;48.58;55.87;;
77135;Laerm;48586;50.122;18.972;2023-08-24T01:54:59;52.85;48.79;55.71;;
77135;Laerm;48586;50.122;18.972;2023-08-24T01:58:08;53.01;48.92;57.56;;
77135;Laerm;48586;50.122;18.972;2023-08-24T02:01:15;53.72;48.89;57.34;;
77135;Laerm;48586;50.122;18.972;2023-08-24T02:04:22;53.76;48.97;57.63;;
77135;Laerm;48586;50.122;18.972;2023-08-24T02:07:28;53.61;48.74;56.97;;
77135;Laerm;48586;50.122;18.972;2023-08-24T02:10:34;53.62;48.92;57.36;;
77135;Laerm;48586;50.122;18.972;2023-08-24T02:13:42;53.84;49.22;58.06;;
77135;Laerm;48586;50.122;18.972;2023-08-24T02:16:49;54.30;49.65;58.04;;
77135;Laerm;48586;50.122;18.972;2023-08-24T02:19:55;53.90;49.36;60.00;;
77135;Laerm;48586;50.122;18.972;2023-08-24T02:23:03;54.13;48.96;60.77;;
77135;Laerm;48586;50.122;18.972;2023-08-24T02:26:08;53.85;49.13;57.90;;
77135;Laerm;48586;50.122;18.972;2023-08-24T02:29:18;53.85;49.44;60.05;;
77135;Laerm;48586;50.122;18.972;2023-08-24T02:32:25;53.59;49.23;57.69;;
77135;Laerm;48586;50.122;18.972;2023-08-24T02:35:30;53.67;49.06;57.49;;
77135;Laerm;48586;50.122;18.972;2023-08-24T02:38:35;54.23;49.42;58.69;;
77135;Laerm;48586;50.122;18.972;2023-08-24T02:41:41;53.71;49.32;58.56;;
77135;Laerm;48586;50.122;18.972;2023-08-24T02:44:49;54.28;49.57;58.18;;
77135;Laerm;48586;50.122;18.972;2023-08-24T02:47:54;53.90;49.27;58.38;;
77135;Laerm;48586;50.122;18.972;2023-08-24T02:51:13;54.55;48.78;58.89;;
77135;Laerm;48586;50.122;18.972;2023-08-24T02:54:19;55.01;50.15;58.75;;
77135;Laerm;48586;50.122;18.972;2023-08-24T02:57:26;55.14;49.54;58.66;;
77135;Laerm;48586;50.122;18.972;2023-08-24T03:00:38;54.90;50.01;58.66;;
77135;Laerm;48586;50.122;18.972;2023-08-24T03:03:43;55.24;50.20;59.93;;
77135;Laerm;48586;50.122;18.972;2023-08-24T03:06:48;55.21;50.26;58.58;;
77135;Laerm;48586;50.122;18.972;2023-08-24T03:09:54;55.50;50.64;59.22;;
77135;Laerm;48586;50.122;18.972;2023-08-24T03:12:59;56.45;50.24;77.96;;
77135;Laerm;48586;50.122;18.972;2023-08-24T03:16:10;55.94;50.50;59.14;;
77135;Laerm;48586;50.122;18.972;2023-08-24T03:19:15;55.98;50.51;59.37;;
77135;Laerm;48586;50.122;18.972;2023-08-24T03:22:20;56.13;50.86;68.86;;
77135;Laerm;48586;50.122;18.972;2023-08-24T03:25:28;55.89;51.35;59.47;;
77135;Laerm;48586;50.122;18.972;2023-08-24T03:28:33;55.65;50.38;59.28;;
77135;Laerm;48586;50.122;18.972;2023-08-24T03:31:41;56.31;51.21;60.09;;
77135;Laerm;48586;50.122;18.972;2023-08-24T03:34:46;56.24;50.49;64.70;;
77135;Laerm;48586;50.122;18.972;2023-08-24T03:38:07;56.04;51.00;59.44;;
77135;Laerm;48586;50.122;18.972;2023-08-24T03:41:13;57.76;51.09;72.22;;
77135;Laerm;48586;50.122;18.972;2023-08-24T03:44:19;56.44;51.41;67.74;;
77135;Laerm;48586;50.122;18.972;2023-08-24T03:47:26;56.23;52.50;59.53;;
77135;Laerm;48586;50.122;18.972;2023-08-24T03:50:32;55.89;50.04;58.88;;
77135;Laerm;48586;50.122;18.972;2023-08-24T03:53:36;56.19;50.92;69.54;;
77135;Laerm;48586;50.122;18.972;2023-08-24T03:56:43;56.49;51.28;62.74;;
77135;Laerm;48586;50.122;18.972;2023-08-24T03:59:47;55.90;50.94;61.77;;
77135;Laerm;48586;50.122;18.972;2023-08-24T04:02:58;56.34;50.73;66.80;;
77135;Laerm;48586;50.122;18.972;2023-08-24T04:06:04;55.79;50.62;59.72;;
77135;Laerm;48586;50.122;18.972;2023-08-24T04:09:10;56.14;50.76;63.77;;
77135;Laerm;48586;50.122;18.972;2023-08-24T04:12:18;56.25;51.67;59.20;;
77135;Laerm;48586;50.122;18.972;2023-08-24T04:15:25;56.25;51.14;59.61;;
77135;Laerm;48586;50.122;18.972;2023-08-24T04:18:32;56.31;51.21;63.17;;
77135;Laerm;48586;50.122;18.972;2023-08-24T04:21:37;56.09;52.96;64.60;;
77135;Laerm;48586;50.122;18.972;2023-08-24T04:24:42;55.96;50.88;60.23;;
77135;Laerm;48586;50.122;18.972;2023-08-24T04:27:48;56.34;51.65;60.47;;
77135;Laerm;48586;50.122;18.972;2023-08-24T04:30:56;56.98;51.33;65.82;;
77135;Laerm;48586;50.122;18.972;2023-08-24T04:34:04;55.80;50.96;58.83;;
77135;Laerm;48586;50.122;18.972;2023-08-24T04:37:09;55.65;50.37;59.64;;
77135;Laerm;48586;50.122;18.972;2023-08-24T04:40:14;56.05;51.30;59.02;;
77135;Laerm;48586;50.122;18.972;2023-08-24T04:43:21;58.00;52.42;73.26;;
77135;Laerm;48586;50.122;18.972;2023-08-24T04:46:26;58.45;54.25;65.64;;
77135;Laerm;48586;50.122;18.972;2023-08-24T04:49:35;59.30;52.87;65.37;;
77135;Laerm;48586;50.122;18.972;2023-08-24T04:52:40;57.91;53.23;63.94;;
77135;Laerm;48586;50.122;18.972;2023-08-24T04:55:46;59.38;53.43;67.36;;
77135;Laerm;48586;50.122;18.972;2023-08-24T04:58:55;60.66;53.45;69.59;;
77135;Laerm;48586;50.122;18.972;2023-08-24T05:02:03;60.63;51.42;69.40;;
77135;Laerm;48586;50.122;18.972;2023-08-24T05:05:13;61.35;53.85;67.27;;
77135;Laerm;48586;50.122;18.972;2023-08-24T05:08:19;59.42;50.67;66.96;;
77135;Laerm;48586;50.122;18.972;2023-08-24T05:11:28;57.24;51.07;63.91;;
77135;Laerm;48586;50.122;18.972;2023-08-24T05:14:34;57.66;51.57;66.16;;
77135;Laerm;48586;50.122;18.972;2023-08-24T05:17:40;58.79;53.93;70.24;;
77135;Laerm;48586;50.122;18.972;2023-08-24T05:20:48;58.29;53.92;63.41;;
77135;Laerm;48586;50.122;18.972;2023-08-24T05:23:54;57.43;52.04;62.68;;
77135;Laerm;48586;50.122;18.972;2023-08-24T05:27:00;58.17;54.44;64.02;;
77135;Laerm;48586;50.122;18.972;2023-08-24T05:30:08;57.02;50.91;64.77;;
77135;Laerm;48586;50.122;18.972;2023-08-24T05:33:13;56.83;53.57;64.52;;
77135;Laerm;48586;50.122;18.972;2023-08-24T05:36:21;56.29;52.04;63.51;;
77135;Laerm;48586;50.122;18.972;2023-08-24T05:39:27;55.05;50.63;72.00;;
77135;Laerm;48586;50.122;18.972;2023-08-24T05:42:33;54.67;50.88;64.79;;
77135;Laerm;48586;50.122;18.972;2023-08-24T05:45:40;54.52;50.93;58.26;;
77135;Laerm;48586;50.122;18.972;2023-08-24T05:48:47;54.18;50.81;57.54;;
77135;Laerm;48586;50.122;18.972;2023-08-24T05:51:55;54.85;50.67;66.86;;
77135;Laerm;48586;50.122;18.972;2023-08-24T05:55:04;54.76;50.02;60.61;;
77135;Laerm;48586;50.122;18.972;2023-08-24T05:58:10;54.34;49.90;64.90;;
77135;Laerm;48586;50.122;18.972;2023-08-24T06:01:15;53.19;49.85;63.76;;
77135;Laerm;48586;50.122;18.972;2023-08-24T06:04:21;54.64;50.44;61.75;;
77135;Laerm;48586;50.122;18.972;2023-08-24T06:07:32;56.04;51.23;68.71;;
77135;Laerm;48586;50.122;18.972;2023-08-24T06:10:39;55.09;50.95;60.39;;
77135;Laerm;48586;50.122;18.972;2023-08-24T06:14:00;54.02;51.44;59.15;;
77135;Laerm;48586;50.122;18.972;2023-08-24T06:17:05;53.76;50.80;65.96;;
77135;Laerm;48586;50.122;18.972;2023-08-24T06:20:13;52.95;49.60;61.70;;
77135;Laerm;48586;50.122;18.972;2023-08-24T06:23:42;53.68;50.72;57.83;;
77135;Laerm;48586;50.122;18.972;2023-08-24T06:26:49;64.73;50.72;86.62;;
77135;Laerm;48586;50.122;18.972;2023-08-24T06:29:58;54.05;50.30;69.92;;
77135;Laerm;48586;50.122;18.972;2023-08-24T06:33:05;52.86;49.79;60.36;;
77135;Laerm;48586;50.122;18.972;2023-08-24T06:36:09;52.75;49.28;59.63;;
77135;Laerm;48586;50.122;18.972;2023-08-24T06:39:18;53.22;49.11;60.55;;
77135;Laerm;48586;50.122;18.972;2023-08-24T06:42:24;55.76;52.00;66.39;;
77135;Laerm;48586;50.122;18.972;2023-08-24T06:45:29;54.21;50.29;59.19;;
77135;Laerm;48586;50.122;18.972;2023-08-24T06:48:54;54.43;50.79;59.03;;
77135;Laerm;48586;50.122;18.972;2023-08-24T06:52:01;53.42;49.61;68.38;;
77135;Laerm;48586;50.122;18.972;2023-08-24T06:55:09;54.10;50.20;57.25;;
77135;Laerm;48586;50.122;18.972;2023-08-24T06:58:18;54.30;49.55;58.76;;
77135;Laerm;48586;50.122;18.972;2023-08-24T07:01:25;53.66;50.00;59.48;;
77135;Laerm;48586;50.122;18.972;2023-08-24T07:04:34;54.26;50.12;67.02;;
77135;Laerm;48586;50.122;18.972;2023-08-24T07:07:41;55.33;49.60;69.36;;
77135;Laerm;48586;50.122;18.972;2023-08-24T07:10:50;53.13;49.40;57.01;;
77135;Laerm;48586;50.122;18.972;2023-08-24T07:13:55;53.33;49.50;56.66;;
77135;Laerm;48586;50.122;18.972;2023-08-24T07:17:03;53.17;49.70;56.40;;
77135;Laerm;48586;50.122;18.972;2023-08-24T07:20:11;52.95;48.88;60.27;;
77135;Laerm;48586;50.122;18.972;2023-08-24T07:23:18;52.48;48.98;56.20;;
77135;Laerm;48586;50.122;18.972;2023-08-24T07:26:26;52.22;48.30;58.88;;
77135;Laerm;48586;50.122;18.972;2023-08-24T07:29:33;52.18;48.45;58.37;;
77135;Laerm;48586;50.122;18.972;2023-08-24T07:32:40;52.18;48.65;65.26;;
77135;Laerm;48586;50.122;18.972;2023-08-24T07:35:48;52.51;49.53;59.89;;
77135;Laerm;48586;50.122;18.972;2023-08-24T07:38:53;52.18;48.93;57.08;;
77135;Laerm;48586;50.122;18.972;2023-08-24T07:42:03;52.60;49.19;64.60;;
77135;Laerm;48586;50.122;18.972;2023-08-24T07:45:10;52.39;49.49;60.28;;
77135;Laerm;48586;50.122;18.972;2023-08-24T07:48:16;53.05;49.64;60.64;;
77135;Laerm;48586;50.122;18.972;2023-08-24T07:51:25;51.25;48.15;56.32;;
77135;Laerm;48586;50.122;18.972;2023-08-24T07:54:31;53.20;48.79;63.37;;
77135;Laerm;48586;50.122;18.972;2023-08-24T07:57:40;51.50;48.66;58.03;;
77135;Laerm;48586;50.122;18.972;2023-08-24T08:00:50;51.81;48.41;58.23;;
77135;Laerm;48586;50.122;18.972;2023-08-24T08:03:55;51.03;48.21;61.56;;
77135;Laerm;48586;50.122;18.972;2023-08-24T08:07:02;52.20;49.04;60.52;;
77135;Laerm;48586;50.122;18.972;2023-08-24T08:10:09;51.28;48.22;56.22;;
77135;Laerm;48586;50.122;18.972;2023-08-24T08:13:18;50.80;48.14;53.99;;
77135;Laerm;48586;50.122;18.972;2023-08-24T08:16:24;50.38;48.14;54.97;;
77135;Laerm;48586;50.122;18.972;2023-08-24T08:19:54;51.53;48.72;59.91;;
77135;Laerm;48586;50.122;18.972;2023-08-24T08:23:00;50.80;47.87;56.97;;
77135;Laerm;48586;50.122;18.972;2023-08-24T08:26:10;51.12;47.97;56.12;;
77135;Laerm;48586;50.122;18.972;2023-08-24T08:29:18;50.44;48.02;56.10;;
77135;Laerm;48586;50.122;18.972;2023-08-24T08:32:40;50.63;48.08;55.23;;
77135;Laerm;48586;50.122;18.972;2023-08-24T08:35:45;52.66;47.93;66.62;;
77135;Laerm;48586;50.122;18.972;2023-08-24T08:38:51;50.58;47.69;59.12;;
77135;Laerm;48586;50.122;18.972;2023-08-24T08:42:00;50.60;47.79;71.25;;
77135;Laerm;48586;50.122;18.972;2023-08-24T08:45:12;50.90;47.78;57.47;;
77135;Laerm;48586;50.122;18.972;2023-08-24T08:48:17;50.26;47.83;57.31;;
77135;Laerm;48586;50.122;18.972;2023-08-24T08:51:25;50.88;47.85;57.93;;
77135;Laerm;48586;50.122;18.972;2023-08-24T08:54:31;50.82;47.58;59.33;;
77135;Laerm;48586;50.122;18.972;2023-08-24T08:57:38;50.61;47.41;58.73;;
77135;Laerm;48586;50.122;18.972;2023-08-24T09:00:48;50.24;47.35;61.90;;
77135;Laerm;48586;50.122;18.972;2023-08-24T09:03:54;50.48;47.73;68.70;;
77135;Laerm;48586;50.122;18.972;2023-08-24T09:07:01;52.46;47.55;62.67;;
77135;Laerm;48586;50.122;18.972;2023-08-24T09:10:13;52.82;47.92;63.95;;
77135;Laerm;48586;50.122;18.972;2023-08-24T09:13:18;51.35;47.82;66.26;;
77135;Laerm;48586;50.122;18.972;2023-08-24T09:16:30;52.08;48.67;64.60;;
77135;Laerm;48586;50.122;18.972;2023-08-24T09:19:35;51.46;47.90;56.64;;
77135;Laerm;48586;50.122;18.972;2023-08-24T09:22:41;52.97;47.89;66.71;;
77135;Laerm;48586;50.122;18.972;2023-08-24T09:25:47;50.24;47.75;59.69;;
77135;Laerm;48586;50.122;18.972;2023-08-24T09:28:53;50.92;48.10;58.11;;
77135;Laerm;48586;50.122;18.972;2023-08-24T09:32:00;50.31;47.21;58.68;;
77135;Laerm;48586;50.122;18.972;2023-08-24T09:35:09;51.07;47.50;62.03;;
77135;Laerm;48586;50.122;18.972;2023-08-24T09:38:18;50.19;47.48;56.21;;
77135;Laerm;48586;50.122;18.972;2023-08-24T09:41:24;51.46;47.35;64.22;;
77135;Laerm;48586;50.122;18.972;2023-08-24T09:44:44;54.34;47.28;68.36;;
77135;Laerm;48586;50.122;18.972;2023-08-24T09:47:53;50.81;47.05;58.00;;
77135;Laerm;48586;50.122;18.972;2023-08-24T09:51:02;51.15;47.43;60.92;;
77135;Laerm;48586;50.122;18.972;2023-08-24T09:54:10;50.70;47.80;58.98;;
77135;Laerm;48586;50.122;18.972;2023-08-24T09:57:17;50.46;47.47;60.76;;
77135;Laerm;48586;50.122;18.972;2023-08-24T10:00:26;58.40;47.59;77.96;;
77135;Laerm;48586;50.122;18.972;2023-08-24T10:03:39;67.57;48.05;80.63;;
77135;Laerm;48586;50.122;18.972;2023-08-24T10:06:52;51.17;47.53;69.10;;
77135;Laerm;48586;50.122;18.972;2023-08-24T10:10:04;51.27;47.86;62.85;;
77135;Laerm;48586;50.122;18.972;2023-08-24T10:13:23;50.86;48.10;56.30;;
77135;Laerm;48586;50.122;18.972;2023-08-24T10:16:32;51.04;47.08;66.56;;
77135;Laerm;48586;50.122;18.972;2023-08-24T10:19:43;51.54;47.05;62.55;;
77135;Laerm;48586;50.122;18.972;2023-08-24T10:23:11;50.85;47.49;60.77;;
77135;Laerm;48586;50.122;18.972;2023-08-24T10:26:19;51.36;47.81;62.25;;
77135;Laerm;48586;50.122;18.972;2023-08-24T10:29:27;50.79;47.07;61.81;;
77135;Laerm;48586;50.122;18.972;2023-08-24T10:32:33;50.33;47.27;63.59;;
77135;Laerm;48586;50.122;18.972;2023-08-24T10:35:43;51.47;47.25;66.24;;
77135;Laerm;48586;50.122;18.972;2023-08-24T10:38:56;52.29;47.23;66.89;;
77135;Laerm;48586;50.122;18.972;2023-08-24T10:42:01;51.98;47.42;64.16;;
77135;Laerm;48586;50.122;18.972;2023-08-24T10:45:14;52.94;47.59;62.46;;
77135;Laerm;48586;50.122;18.972;2023-08-24T10:48:19;51.91;47.92;63.31;;
77135;Laerm;48586;50.122;18.972;2023-08-24T10:51:27;50.79;47.82;57.89;;
77135;Laerm;48586;50.122;18.972;2023-08-24T10:54:42;51.19;47.37;59.54;;
77135;Laerm;48586;50.122;18.972;2023-08-24T10:57:57;50.46;47.59;67.03;;
77135;Laerm;48586;50.122;18.972;2023-08-24T11:01:22;50.51;46.98;60.49;;
77135;Laerm;48586;50.122;18.972;2023-08-24T11:04:28;52.48;47.23;64.38;;
77135;Laerm;48586;50.122;18.972;2023-08-24T11:07:49;51.00;46.73;59.11;;
77135;Laerm;48586;50.122;18.972;2023-08-24T11:10:57;54.38;46.72;63.88;;
77135;Laerm;48586;50.122;18.972;2023-08-24T11:14:15;52.13;48.05;57.21;;
77135;Laerm;48586;50.122;18.972;2023-08-24T11:17:30;51.18;47.66;58.11;;
77135;Laerm;48586;50.122;18.972;2023-08-24T11:20:36;52.94;47.32;62.43;;
77135;Laerm;48586;50.122;18.972;2023-08-24T11:23:46;50.81;46.85;58.05;;
77135;Laerm;48586;50.122;18.972;2023-08-24T11:26:51;50.38;46.99;56.60;;
77135;Laerm;48586;50.122;18.972;2023-08-24T11:30:00;51.66;46.76;61.97;;
77135;Laerm;48586;50.122;18.972;2023-08-24T11:33:07;51.18;47.21;69.45;;
77135;Laerm;48586;50.122;18.972;2023-08-24T11:36:14;50.93;47.21;59.31;;
77135;Laerm;48586;50.122;18.972;2023-08-24T11:39:22;50.24;46.67;55.05;;
77135;Laerm;48586;50.122;18.972;2023-08-24T11:42:36;50.57;46.92;56.82;;
77135;Laerm;48586;50.122;18.972;2023-08-24T11:45:41;50.61;47.07;61.80;;
77135;Laerm;48586;50.122;18.972;2023-08-24T11:49:04;50.18;47.20;57.02;;
77135;Laerm;48586;50.122;18.972;2023-08-24T11:52:09;52.56;47.64;56.71;;
77135;Laerm;48586;50.122;18.972;2023-08-24T11:55:42;55.53;46.66;75.63;;
77135;Laerm;48586;50.122;18.972;2023-08-24T11:58:50;51.67;47.18;73.10;;
77135;Laerm;48586;50.122;18.972;2023-08-24T12:01:56;50.99;47.08;56.03;;
77135;Laerm;48586;50.122;18.972;2023-08-24T12:05:06;51.20;47.37;70.79;;
77135;Laerm;48586;50.122;18.972;2023-08-24T12:08:12;51.12;46.92;58.39;;
77135;Laerm;48586;50.122;18.972;2023-08-24T12:11:21;52.10;47.94;56.95;;
77135;Laerm;48586;50.122;18.972;2023-08-24T12:14:28;51.35;47.84;61.15;;
77135;Laerm;48586;50.122;18.972;2023-08-24T12:17:43;51.62;47.46;61.27;;
77135;Laerm;48586;50.122;18.972;2023-08-24T12:20:49;51.21;47.10;56.73;;
77135;Laerm;48586;50.122;18.972;2023-08-24T12:23:58;50.04;46.65;58.03;;
77135;Laerm;48586;50.122;18.972;2023-08-24T12:27:17;50.76;46.85;56.38;;
77135;Laerm;48586;50.122;18.972;2023-08-24T12:30:23;50.26;46.59;56.93;;
77135;Laerm;48586;50.122;18.972;2023-08-24T12:33:31;51.60;47.60;59.99;;
77135;Laerm;48586;50.122;18.972;2023-08-24T12:36:37;49.69;46.45;55.89;;
77135;Laerm;48586;50.122;18.972;2023-08-24T12:39:43;51.16;46.99;58.50;;
77135;Laerm;48586;50.122;18.972;2023-08-24T12:42:52;50.83;47.34;58.04;;
77135;Laerm;48586;50.122;18.972;2023-08-24T12:45:58;50.28;46.99;55.64;;
77135;Laerm;48586;50.122;18.972;2023-08-24T12:49:04;51.97;47.58;57.39;;
77135;Laerm;48586;50.122;18.972;2023-08-24T12:52:10;50.02;46.98;58.93;;
77135;Laerm;48586;50.122;18.972;2023-08-24T12:55:14;50.84;46.63;72.22;;
77135;Laerm;48586;50.122;18.972;2023-08-24T12:58:22;50.93;46.84;61.61;;
77135;Laerm;48586;50.122;18.972;2023-08-24T13:01:27;49.99;46.86;57.21;;
77135;Laerm;48586;50.122;18.972;2023-08-24T13:04:32;50.24;46.65;60.14;;
77135;Laerm;48586;50.122;18.972;2023-08-24T13:07:38;50.85;47.10;55.69;;
77135;Laerm;48586;50.122;18.972;2023-08-24T13:10:43;51.30;47.66;62.67;;
77135;Laerm;48586;50.122;18.972;2023-08-24T13:13:50;51.09;47.45;59.70;;
77135;Laerm;48586;50.122;18.972;2023-08-24T13:16:55;50.30;46.76;56.38;;
77135;Laerm;48586;50.122;18.972;2023-08-24T13:20:00;51.93;48.23;59.98;;
77135;Laerm;48586;50.122;18.972;2023-08-24T13:23:06;51.24;47.55;62.14;;
77135;Laerm;48586;50.122;18.972;2023-08-24T13:26:18;50.38;47.13;57.98;;
77135;Laerm;48586;50.122;18.972;2023-08-24T13:29:28;50.35;46.43;56.03;;
77135;Laerm;48586;50.122;18.972;2023-08-24T13:32:32;50.18;47.23;55.24;;
77135;Laerm;48586;50.122;18.972;2023-08-24T13:35:37;50.32;46.77;55.74;;
77135;Laerm;48586;50.122;18.972;2023-08-24T13:38:43;51.37;46.75;69.83;;
77135;Laerm;48586;50.122;18.972;2023-08-24T13:41:49;53.97;47.43;63.95;;
77135;Laerm;48586;50.122;18.972;2023-08-24T13:44:57;58.87;47.69;66.89;;
77135;Laerm;48586;50.122;18.972;2023-08-24T13:48:03;51.34;47.58;58.95;;
77135;Laerm;48586;50.122;18.972;2023-08-24T13:51:09;50.12;46.82;58.52;;
77135;Laerm;48586;50.122;18.972;2023-08-24T13:54:16;51.87;47.24;60.78;;
77135;Laerm;48586;50.122;18.972;2023-08-24T13:57:21;50.44;46.67;56.88;;
77135;Laerm;48586;50.122;18.972;2023-08-24T14:00:30;50.78;46.93;58.08;;
77135;Laerm;48586;50.122;18.972;2023-08-24T14:03:35;50.33;46.77;59.07;;
77135;Laerm;48586;50.122;18.972;2023-08-24T14:06:42;51.03;47.81;62.41;;
77135;Laerm;48586;50.122;18.972;2023-08-24T14:09:47;51.33;47.44;56.00;;
77135;Laerm;48586;50.122;18.972;2023-08-24T14:12:52;51.35;47.42;65.98;;
77135;Laerm;48586;50.122;18.972;2023-08-24T14:16:13;51.03;47.03;57.61;;
77135;Laerm;48586;50.122;18.972;2023-08-24T14:19:19;51.07;47.23;67.54;;
77135;Laerm;48586;50.122;18.972;2023-08-24T14:22:26;50.43;46.86;58.76;;
77135;Laerm;48586;50.122;18.972;2023-08-24T14:25:33;51.00;47.13;58.80;;
77135;Laerm;48586;50.122;18.972;2023-08-24T14:28:49;50.89;47.39;58.39;;
77135;Laerm;48586;50.122;18.972;2023-08-24T14:31:59;51.00;47.36;64.10;;
77135;Laerm;48586;50.122;18.972;2023-08-24T14:35:04;53.17;47.65;67.21;;
77135;Laerm;48586;50.122;18.972;2023-08-24T14:38:10;50.41;46.85;62.82;;
77135;Laerm;48586;50.122;18.972;2023-08-24T14:41:35;50.95;47.09;62.32;;
77135;Laerm;48586;50.122;18.972;2023-08-24T14:44:42;51.51;47.35;64.43;;
77135;Laerm;48586;50.122;18.972;2023-08-24T14:47:56;52.28;47.01;66.34;;
77135;Laerm;48586;50.122;18.972;2023-08-24T14:51:02;50.72;46.69;56.67;;
77135;Laerm;48586;50.122;18.972;2023-08-24T14:54:11;50.43;47.06;58.54;;
77135;Laerm;48586;50.122;18.972;2023-08-24T14:57:39;50.56;46.83;60.73;;
77135;Laerm;48586;50.122;18.972;2023-08-24T15:01:03;50.29;46.87;58.23;;
77135;Laerm;48586;50.122;18.972;2023-08-24T15:04:12;52.40;46.92;69.79;;
77135;Laerm;48586;50.122;18.972;2023-08-24T15:07:16;50.89;47.07;62.60;;
77135;Laerm;48586;50.122;18.972;2023-08-24T15:10:48;50.90;46.88;58.60;;
77135;Laerm;48586;50.122;18.972;2023-08-24T15:13:54;50.31;47.13;57.89;;
77135;Laerm;48586;50.122;18.972;2023-08-24T15:17:00;49.94;46.72;58.78;;
77135;Laerm;48586;50.122;18.972;2023-08-24T15:20:10;50.73;46.58;56.69;;
77135;Laerm;48586;50.122;18.972;2023-08-24T15:23:23;50.27;46.72;61.71;;
77135;Laerm;48586;50.122;18.972;2023-08-24T15:26:48;50.22;46.71;65.92;;
77135;Laerm;48586;50.122;18.972;2023-08-24T15:29:58;50.52;46.95;56.98;;
77135;Laerm;48586;50.122;18.972;2023-08-24T15:33:06;51.19;47.28;60.52;;
77135;Laerm;48586;50.122;18.972;2023-08-24T15:36:14;52.42;48.11;61.95;;
77135;Laerm;48586;50.122;18.972;2023-08-24T15:39:21;50.44;47.17;57.27;;
77135;Laerm;48586;50.122;18.972;2023-08-24T15:42:28;50.64;46.97;60.68;;
77135;Laerm;48586;50.122;18.972;2023-08-24T15:45:34;51.34;46.85;73.83;;
77135;Laerm;48586;50.122;18.972;2023-08-24T15:48:39;69.27;47.75;80.96;;
77135;Laerm;48586;50.122;18.972;2023-08-24T15:51:47;51.52;47.41;57.30;;
77135;Laerm;48586;50.122;18.972;2023-08-24T15:54:52;51.57;47.26;60.88;;
77135;Laerm;48586;50.122;18.972;2023-08-24T15:57:59;50.89;47.45;69.67;;
77135;Laerm;48586;50.122;18.972;2023-08-24T16:01:05;51.79;47.90;60.31;;
77135;Laerm;48586;50.122;18.972;2023-08-24T16:04:13;51.78;47.52;61.71;;
77135;Laerm;48586;50.122;18.972;2023-08-24T16:07:21;50.45;47.16;55.79;;
77135;Laerm;48586;50.122;18.972;2023-08-24T16:10:31;52.29;46.89;69.31;;
77135;Laerm;48586;50.122;18.972;2023-08-24T16:13:36;51.98;47.26;65.34;;
77135;Laerm;48586;50.122;18.972;2023-08-24T16:16:41;51.09;47.60;62.78;;
77135;Laerm;48586;50.122;18.972;2023-08-24T16:19:46;52.07;48.21;61.95;;
77135;Laerm;48586;50.122;18.972;2023-08-24T16:22:55;51.46;47.87;65.42;;
77135;Laerm;48586;50.122;18.972;2023-08-24T16:26:00;50.52;47.26;59.03;;
77135;Laerm;48586;50.122;18.972;2023-08-24T16:29:08;53.38;47.48;67.96;;
77135;Laerm;48586;50.122;18.972;2023-08-24T16:32:13;51.38;47.43;70.70;;
77135;Laerm;48586;50.122;18.972;2023-08-24T16:35:17;51.05;47.42;68.99;;
77135;Laerm;48586;50.122;18.972;2023-08-24T16:38:25;51.49;47.14;65.64;;
77135;Laerm;48586;50.122;18.972;2023-08-24T16:41:30;51.70;47.16;66.32;;
77135;Laerm;48586;50.122;18.972;2023-08-24T16:44:37;52.08;47.73;61.81;;
77135;Laerm;48586;50.122;18.972;2023-08-24T16:47:48;51.45;47.71;58.33;;
77135;Laerm;48586;50.122;18.972;2023-08-24T16:50:54;51.94;47.30;61.38;;
77135;Laerm;48586;50.122;18.972;2023-08-24T16:54:01;51.14;47.49;68.82;;
77135;Laerm;48586;50.122;18.972;2023-08-24T16:57:07;50.26;47.07;65.97;;
77135;Laerm;48586;50.122;18.972;2023-08-24T17:00:13;51.58;47.40;63.99;;
77135;Laerm;48586;50.122;18.972;2023-08-24T17:03:19;53.72;47.19;71.81;;
77135;Laerm;48586;50.122;18.972;2023-08-24T17:06:24;52.65;47.54;70.46;;
77135;Laerm;48586;50.122;18.972;2023-08-24T17:09:32;50.72;47.12;60.69;;
77135;Laerm;48586;50.122;18.972;2023-08-24T17:12:37;51.16;47.47;60.23;;
77135;Laerm;48586;50.122;18.972;2023-08-24T17:15:43;50.76;47.89;55.68;;
77135;Laerm;48586;50.122;18.972;2023-08-24T17:18:51;51.01;47.95;56.93;;